Aviation Digital Data Service (ADDS)

Output produced by METARs form (0115 UTC 01 December 2022)
found at http://aviationweather.gov/metar/data/
 
KABQ 302329Z 0100/0124 13006KT P6SM BKN200 
     FM011200 VRB04KT P6SM SCT250 
     FM012000 18008KT P6SM BKN250